<?xml version="1.0" encoding="UTF-8" standalone="no" ?><gpx xmlns="http://www.topografix.com/GPX/1/1" xmlns:gpxx="http://www.garmin.com/xmlschemas/GpxExtensions/v3" xmlns:wptx1="http://www.garmin.com/xmlschemas/WaypointExtension/v1" xmlns:gpxtpx="http://www.garmin.com/xmlschemas/TrackPointExtension/v1" creator="GuideVTT.com" version="1.1" xmlns:xsi="http://www.w3.org/2001/XMLSchema-instance" xsi:schemaLocation="http://www.topografix.com/GPX/1/1 http://www.topografix.com/GPX/1/1/gpx.xsd http://www.garmin.com/xmlschemas/GpxExtensions/v3 http://www8.garmin.com/xmlschemas/GpxExtensionsv3.xsd http://www.garmin.com/xmlschemas/WaypointExtension/v1 http://www8.garmin.com/xmlschemas/WaypointExtensionv1.xsd http://www.garmin.com/xmlschemas/TrackPointExtension/v1 http://www.garmin.com/xmlschemas/TrackPointExtensionv1.xsd">
<metadata><link href="http://www.garmin.com"><text>Garmin International</text></link><time>2013-06-22T15:13:50Z</time></metadata>
<trk><name>rpdzt7h15_survolbarillette7.gpx</name><extensions><gpxx:TrackExtension><gpxx:DisplayColor>Cyan</gpxx:DisplayColor></gpxx:TrackExtension></extensions><trkseg>
<trkpt lat="46.40091511532655" lon="6.17350888677775"><ele></ele><time>2016-6-13T18:41:56Z</time></trkpt>
<trkpt lat="46.39899221261633" lon="6.167152596313958"><ele></ele><time>2016-6-13T18:41:59Z</time></trkpt>
<trkpt lat="46.39728264370289" lon="6.161206946943576"><ele></ele><time>2016-6-13T18:42:2Z</time></trkpt>
<trkpt lat="46.39587948078734" lon="6.15442725864707"><ele></ele><time>2016-6-13T18:42:5Z</time></trkpt>
<trkpt lat="46.39518865309459" lon="6.14887505815031"><ele></ele><time>2016-6-13T18:42:8Z</time></trkpt>
<trkpt lat="46.39588897101003" lon="6.14400785125423"><ele></ele><time>2016-6-13T18:42:11Z</time></trkpt>
<trkpt lat="46.39745847162064" lon="6.140862852793052"><ele></ele><time>2016-6-13T18:42:14Z</time></trkpt>
<trkpt lat="46.39901458474596" lon="6.139750198339799"><ele></ele><time>2016-6-13T18:42:17Z</time></trkpt>
<trkpt lat="46.40281800647287" lon="6.139457102625561"><ele></ele><time>2016-6-13T18:42:20Z</time></trkpt>
<trkpt lat="46.40588604446459" lon="6.140458954890109"><ele></ele><time>2016-6-13T18:42:23Z</time></trkpt>
<trkpt lat="46.40807502693384" lon="6.142168587671533"><ele></ele><time>2016-6-13T18:42:26Z</time></trkpt>
<trkpt lat="46.41023188329675" lon="6.143949181135127"><ele></ele><time>2016-6-13T18:42:29Z</time></trkpt>
<trkpt lat="46.41341722463086" lon="6.148932013615474"><ele></ele><time>2016-6-13T18:42:32Z</time></trkpt>
<trkpt lat="46.41471782363325" lon="6.151842086747481"><ele></ele><time>2016-6-13T18:42:35Z</time></trkpt>
<trkpt lat="46.415954313015" lon="6.156750079917659"><ele></ele><time>2016-6-13T18:42:38Z</time></trkpt>
<trkpt lat="46.41627970608061" lon="6.16373032322882"><ele></ele><time>2016-6-13T18:42:41Z</time></trkpt>
<trkpt lat="46.4170401959851" lon="6.169134829870695"><ele></ele><time>2016-6-13T18:42:44Z</time></trkpt>
<trkpt lat="46.41899621040379" lon="6.17264946720862"><ele></ele><time>2016-6-13T18:42:47Z</time></trkpt>
<trkpt lat="46.42235687143025" lon="6.17293281246188"><ele></ele><time>2016-6-13T18:42:50Z</time></trkpt>
<trkpt lat="46.42509847983664" lon="6.170683864358894"><ele></ele><time>2016-6-13T18:42:53Z</time></trkpt>
<trkpt lat="46.42651174359251" lon="6.166615391925985"><ele></ele><time>2016-6-13T18:42:56Z</time></trkpt>
<trkpt lat="46.42574744226553" lon="6.161867993276468"><ele></ele><time>2016-6-13T18:42:59Z</time></trkpt>
<trkpt lat="46.42470410536338" lon="6.155293141812899"><ele></ele><time>2016-6-13T18:43:2Z</time></trkpt>
<trkpt lat="46.42460076677634" lon="6.150367701625569"><ele></ele><time>2016-6-13T18:43:5Z</time></trkpt>
<trkpt lat="46.42518847425379" lon="6.14743529267237"><ele></ele><time>2016-6-13T18:43:8Z</time></trkpt>
<trkpt lat="46.42689512726188" lon="6.142576637929736"><ele></ele><time>2016-6-13T18:43:11Z</time></trkpt>
<trkpt lat="46.42702556927823" lon="6.137458652588565"><ele></ele><time>2016-6-13T18:43:14Z</time></trkpt>
<trkpt lat="46.42598273730186" lon="6.133243452286202"><ele></ele><time>2016-6-13T18:43:17Z</time></trkpt>
<trkpt lat="46.42529831567888" lon="6.129677712844048"><ele></ele><time>2016-6-13T18:43:20Z</time></trkpt>
<trkpt lat="46.42566831291596" lon="6.126343328148217"><ele></ele><time>2016-6-13T18:43:23Z</time></trkpt>
<trkpt lat="46.42771562593031" lon="6.124180176322214"><ele></ele><time>2016-6-13T18:43:26Z</time></trkpt>
<trkpt lat="46.42942193868902" lon="6.123902901829368"><ele></ele><time>2016-6-13T18:43:29Z</time></trkpt>
<trkpt lat="46.43060578888698" lon="6.124425216678"><ele></ele><time>2016-6-13T18:43:32Z</time></trkpt>
<trkpt lat="46.43155461754427" lon="6.125252110709347"><ele></ele><time>2016-6-13T18:43:35Z</time></trkpt>
<trkpt lat="46.43194823642684" lon="6.126523363517329"><ele></ele><time>2016-6-13T18:43:38Z</time></trkpt>
<trkpt lat="46.431853141295" lon="6.127562416581778"><ele></ele><time>2016-6-13T18:43:41Z</time></trkpt>
<trkpt lat="46.43154506400793" lon="6.128080357528689"><ele></ele><time>2016-6-13T18:43:44Z</time></trkpt>
<trkpt lat="46.43125527082504" lon="6.128393574843233"><ele></ele><time>2016-6-13T18:43:47Z</time></trkpt>
<trkpt lat="46.43113469055733" lon="6.128507357873911"><ele></ele><time>2016-6-13T18:43:50Z</time></trkpt>
<trkpt lat="46.4310641244768" lon="6.128569107668948"><ele></ele><time>2016-6-13T18:43:53Z</time></trkpt>
<trkpt lat="46.43100462370497" lon="6.128628775748426"><ele></ele><time>2016-6-13T18:43:56Z</time></trkpt>
<trkpt lat="46.43095733685495" lon="6.12867410446075"><ele></ele><time>2016-6-13T18:43:59Z</time></trkpt>
<trkpt lat="46.43091657029007" lon="6.128716783844896"><ele></ele><time>2016-6-13T18:44:2Z</time></trkpt>
</trkseg></trk></gpx>